Detall de PIREP

Printer-friendly versionPDF version

[2017/07/09 08:19:00]
Flight IATA:CT3234
Pilot Number:042
Company ICAO:CAT
Aircraft Type:B738/F
PAX:62
Departing Airport: LEPA
Destination Airport: LFPG
Alternate Airport:LFPO
Online: VATSIM
Route:GALAT UN861 FISTO UY156 ADABI UN858 VANAD A34 KOVAK
Flight Level:F340
No Slew and time accel
No pause
Crash detect
Detect pilot in Cockpit between each 30 and 45 minutes
08:19 Zero fuel Weight: 121806 Lbs, Fuel Weight: 45998 Lbs
08:19 VATSIM:LEPA 090800Z 23007KT 190V250 9999 FEW016 27/22 Q1013 NOSIG
08:19 VATSIM:LFPG 090800Z 04006KT 360V080 CAVOK 23/16 Q1014 NOSIG
08:27 Parking Brakes off
08:34 Take-off
08:34 Take off Weight: 166806 Lbs
08:34 Wind: 000º @ 000 Knots Heading: 238º
08:34 POS N39º 33´ 08´´ E002º 43´ 17´´
08:34 Flaps:4 at 166 Knots
08:34 Gear Up: 164 Knots
08:34 Flaps:3 at 172 Knots
08:34 Flaps:2 at 184 Knots
08:35 Flaps:1 at 175 Knots
08:35 Flaps:0 at 187 Knots
08:49 Wind:270º@025 Knots Heading: 346º Ground Speed: 467 Knots Altitude 27237 ft
08:54 TOC
08:54 Fuel Weight: 40541 Lb
09:04 Wind:270º@025 Knots Heading: 350º Ground Speed: 454 Knots Altitude 33996 ft
09:19 Wind:270º@025 Knots Heading: 352º Ground Speed: 455 Knots Altitude 33996 ft
09:34 Wind:270º@025 Knots Heading: 359º Ground Speed: 458 Knots Altitude 33996 ft
09:45 TOD
09:45 Fuel Weight: 35470 Lb
09:49 Wind:270º@025 Knots Heading: 342º Ground Speed: 411 Knots Altitude 26879 ft
10:01 Flaps:1 at 245 Knots
10:02 Flaps:2 at 198 Knots
10:03 Flaps:3 at 192 Knots
10:04 Wind:279º@018 Knots Heading: 076º Ground Speed: 209 Knots Altitude 6312 ft
10:04 Flaps:4 at 176 Knots
10:05 Gear Down: 187 Knots
10:05 Flaps:5 at 184 Knots
10:06 Flaps:6 at 175 Knots
10:07 Flaps:7 at 166 Knots
10:07 Flaps:8 at 155 Knots
10:09 TouchDown:Rate -94 ft/min Speed: 142 Knots
10:10 VATSIM:LFPG 091000Z 05006KT 010V100 CAVOK 27/16 Q1013 NOSIG
10:10 Land
10:10 Wind:000º@000 Knots
10:10 Heading: 085º
10:10 Flight Duration: 01:36
10:10 Landing Weight: 156044 Lbs
10:10 POS N48º 59´ 48´´ E002º 34´ 26´´
10:12 Parking brakes on
10:12 Block to Block Duration: 01:45
10:12 Final Fuel: 34047 Lbls
10:12 Spent Fuel: 11951 Lbls
10:12 Flight Length: 646 NM
10:12 TOD Land Length: 130 NM

Exportar CSV

Powered by Drupal - Modified by Danger4k